Time,TemperatureF,DewpointF,PressureIn,WindDirection,WindDirectionDegrees,WindSpeedMPH,WindSpeedGustMPH,Humidity,HourlyPrecipIn,Conditions,Clouds,dailyrainin,SoftwareType,DateUTC
2013-01-28 00:00:00,18.9,2.9,30.42,WNW,288,0.0,2.0,49,0.00,,,0.00,WeatherCatV1.10B1784,2013-01-28 05:00:00,
2013-01-28 00:05:00,18.9,3.4,30.42,WNW,288,0.0,0.0,50,0.00,,,0.00,WeatherCatV1.10B1784,2013-01-28 05:05:00,
2013-01-28 00:10:00,19.0,3.5,30.42,WNW,288,1.0,1.0,50,0.00,,,0.00,WeatherCatV1.10B1784,2013-01-28 05:10:00,
2013-01-28 00:15:00,19.2,3.2,30.43,WNW,288,0.0,3.0,49,0.00,,,0.00,WeatherCatV1.10B1784,2013-01-28 05:15:00,
2013-01-28 00:20:00,19.2,3.2,30.43,WNW,288,3.0,3.0,49,0.00,,,0.00,WeatherCatV1.10B1784,2013-01-28 05:20:00,
2013-01-28 00:25:00,19.2,3.6,30.42,WNW,288,1.0,5.0,50,0.00,,,0.00,WeatherCatV1.10B1784,2013-01-28 05:25:00,
2013-01-28 00:30:00,19.3,3.7,30.42,WNW,288,1.0,4.0,50,0.00,,,0.00,WeatherCatV1.10B1784,2013-01-28 05:30:00,
2013-01-28 00:35:00,19.5,3.5,30.42,WNW,288,1.0,2.0,49,0.00,,,0.00,WeatherCatV1.10B1784,2013-01-28 05:35:00,
2013-01-28 00:40:00,19.6,3.1,30.42,WNW,288,0.0,2.0,48,0.00,,,0.00,WeatherCatV1.10B1784,2013-01-28 05:40:00,
2013-01-28 00:45:00,19.6,3.6,30.41,WNW,288,0.0,0.0,49,0.00,,,0.00,WeatherCatV1.10B1784,2013-01-28 05:45:00,
2013-01-28 00:50:00,19.5,3.0,30.42,WNW,288,0.0,2.0,48,0.00,,,0.00,WeatherCatV1.10B1784,2013-01-28 05:50:00,
2013-01-28 00:55:00,19.4,3.4,30.41,WNW,288,0.0,0.0,49,0.00,,,0.00,WeatherCatV1.10B1784,2013-01-28 05:55:00,
2013-01-28 01:00:00,19.3,3.3,30.41,WNW,288,0.0,0.0,49,0.00,,,0.00,WeatherCatV1.10B1784,2013-01-28 06:00:00,
2013-01-28 01:05:00,19.4,3.0,30.41,WNW,288,0.0,2.0,48,0.00,,,0.00,WeatherCatV1.10B1784,2013-01-28 06:05:00,
2013-01-28 01:10:00,19.5,3.0,30.41,WNW,288,0.0,0.0,48,0.00,,,0.00,WeatherCatV1.10B1784,2013-01-28 06:10:00,
2013-01-28 01:15:00,19.6,3.6,30.42,WNW,288,0.0,3.0,49,0.00,,,0.00,WeatherCatV1.10B1784,2013-01-28 06:15:00,
2013-01-28 01:20:00,19.3,4.2,30.42,WNW,288,0.0,1.0,51,0.00,,,0.00,WeatherCatV1.10B1784,2013-01-28 06:20:00,
2013-01-28 01:25:00,19.0,3.9,30.42,WNW,288,0.0,0.0,51,0.00,,,0.00,WeatherCatV1.10B1784,2013-01-28 06:25:00,
2013-01-28 01:30:00,18.8,4.1,30.42,WNW,288,0.0,2.0,52,0.00,,,0.00,WeatherCatV1.10B1784,2013-01-28 06:30:00,
2013-01-28 01:35:00,19.4,3.0,30.42,WNW,288,1.0,4.0,48,0.00,,,0.00,WeatherCatV1.10B1784,2013-01-28 06:35:00,
2013-01-28 01:40:00,19.7,3.2,30.42,WNW,288,2.0,2.0,48,0.00,,,0.00,WeatherCatV1.10B1784,2013-01-28 06:40:00,
2013-01-28 01:45:00,20.1,3.1,30.43,WNW,288,0.0,3.0,47,0.00,,,0.00,WeatherCatV1.10B1784,2013-01-28 06:45:00,
2013-01-28 01:50:00,20.2,3.7,30.43,WNW,288,0.0,0.0,48,0.00,,,0.00,WeatherCatV1.10B1784,2013-01-28 06:50:00,
2013-01-28 01:55:00,20.2,3.2,30.43,WNW,288,0.0,0.0,47,0.00,,,0.00,WeatherCatV1.10B1784,2013-01-28 06:55:00,
2013-01-28 02:00:00,20.0,3.5,30.42,WNW,288,0.0,0.0,48,0.00,,,0.00,WeatherCatV1.10B1784,2013-01-28 07:00:00,
2013-01-28 02:05:00,19.9,3.9,30.42,WNW,288,0.0,0.0,49,0.00,,,0.00,WeatherCatV1.10B1784,2013-01-28 07:05:00,
2013-01-28 02:10:00,19.9,3.4,30.42,WNW,288,0.0,0.0,48,0.00,,,0.00,WeatherCatV1.10B1784,2013-01-28 07:10:00,
2013-01-28 02:15:00,19.9,3.4,30.42,WNW,288,0.0,0.0,48,0.00,,,0.00,WeatherCatV1.10B1784,2013-01-28 07:15:00,
2013-01-28 02:20:00,20.0,3.0,30.42,WNW,288,0.0,0.0,47,0.00,,,0.00,WeatherCatV1.10B1784,2013-01-28 07:20:00,
2013-01-28 02:25:00,20.0,3.9,30.42,WNW,288,0.0,0.0,49,0.00,,,0.00,WeatherCatV1.10B1784,2013-01-28 07:25:00,
2013-01-28 02:30:00,20.1,4.5,30.42,WNW,288,1.0,1.0,50,0.00,,,0.00,WeatherCatV1.10B1784,2013-01-28 07:30:00,
2013-01-28 02:35:00,20.3,3.8,30.42,WNW,288,0.0,0.0,48,0.00,,,0.00,WeatherCatV1.10B1784,2013-01-28 07:35:00,
2013-01-28 02:40:00,20.5,3.5,30.41,WNW,288,0.0,0.0,47,0.00,,,0.00,WeatherCatV1.10B1784,2013-01-28 07:40:00,
2013-01-28 02:45:00,20.6,3.6,30.41,WNW,288,0.0,0.0,47,0.00,,,0.00,WeatherCatV1.10B1784,2013-01-28 07:45:00,
2013-01-28 02:50:00,20.6,3.6,30.41,WNW,288,0.0,0.0,47,0.00,,,0.00,WeatherCatV1.10B1784,2013-01-28 07:50:00,
2013-01-28 02:52:00,20.6,3.6,30.41,WNW,288,1.0,2.0,47,0.00,,,0.00,WeatherCatV1.10B1784,2013-01-28 07:52:00,
2013-01-28 02:57:00,20.6,3.6,30.41,WNW,288,0.0,6.0,47,0.00,,,0.00,WeatherCatV1.10B1784,2013-01-28 07:57:00,
2013-01-28 03:02:00,20.6,4.5,30.41,WNW,288,0.0,2.0,49,0.00,,,0.00,WeatherCatV1.10B1784,2013-01-28 08:02:00,
2013-01-28 03:07:00,20.5,3.5,30.41,WNW,288,3.0,4.0,47,0.00,,,0.00,WeatherCatV1.10B1784,2013-01-28 08:07:00,
2013-01-28 03:12:00,20.6,3.6,30.41,WNW,288,0.0,3.0,47,0.00,,,0.00,WeatherCatV1.10B1784,2013-01-28 08:12:00,
2013-01-28 03:17:00,20.6,3.6,30.41,WNW,288,1.0,3.0,47,0.00,,,0.00,WeatherCatV1.10B1784,2013-01-28 08:17:00,
2013-01-28 03:22:00,20.6,4.1,30.41,WNW,288,1.0,1.0,48,0.00,,,0.00,WeatherCatV1.10B1784,2013-01-28 08:22:00,
2013-01-28 03:27:00,20.5,4.0,30.40,WNW,288,0.0,2.0,48,0.00,,,0.00,WeatherCatV1.10B1784,2013-01-28 08:27:00,
2013-01-28 03:32:00,20.6,4.1,30.40,WNW,288,0.0,2.0,48,0.00,,,0.00,WeatherCatV1.10B1784,2013-01-28 08:32:00,
2013-01-28 03:37:00,20.6,4.5,30.40,WNW,288,0.0,1.0,49,0.00,,,0.00,WeatherCatV1.10B1784,2013-01-28 08:37:00,
2013-01-28 03:42:00,20.6,4.5,30.40,WNW,288,0.0,0.0,49,0.00,,,0.00,WeatherCatV1.10B1784,2013-01-28 08:42:00,
2013-01-28 03:47:00,20.6,4.5,30.39,WNW,288,0.0,0.0,49,0.00,,,0.00,WeatherCatV1.10B1784,2013-01-28 08:47:00,
2013-01-28 03:52:00,20.6,4.1,30.39,WNW,288,0.0,0.0,48,0.00,,,0.00,WeatherCatV1.10B1784,2013-01-28 08:52:00,
2013-01-28 03:57:00,20.6,4.5,30.39,WNW,288,0.0,0.0,49,0.00,,,0.00,WeatherCatV1.10B1784,2013-01-28 08:57:00,
2013-01-28 04:02:00,20.6,5.4,30.39,WNW,288,0.0,0.0,51,0.00,,,0.00,WeatherCatV1.10B1784,2013-01-28 09:02:00,
2013-01-28 04:07:00,20.5,4.8,30.39,WNW,288,0.0,0.0,50,0.00,,,0.00,WeatherCatV1.10B1784,2013-01-28 09:07:00,
2013-01-28 04:12:00,20.4,4.3,30.39,WNW,288,0.0,0.0,49,0.00,,,0.00,WeatherCatV1.10B1784,2013-01-28 09:12:00,
2013-01-28 04:17:00,20.3,3.3,30.39,WNW,288,0.0,0.0,47,0.00,,,0.00,WeatherCatV1.10B1784,2013-01-28 09:17:00,
2013-01-28 04:22:00,20.3,5.5,30.39,WNW,288,0.0,0.0,52,0.00,,,0.00,WeatherCatV1.10B1784,2013-01-28 09:22:00,
2013-01-28 04:27:00,20.1,4.9,30.38,WNW,288,0.0,0.0,51,0.00,,,0.00,WeatherCatV1.10B1784,2013-01-28 09:27:00,
2013-01-28 04:32:00,20.0,4.8,30.39,WNW,288,0.0,0.0,51,0.00,,,0.00,WeatherCatV1.10B1784,2013-01-28 09:32:00,
2013-01-28 04:37:00,19.9,4.3,30.39,WNW,288,0.0,0.0,50,0.00,,,0.00,WeatherCatV1.10B1784,2013-01-28 09:37:00,
2013-01-28 04:42:00,19.8,5.9,30.39,WNW,288,0.0,0.0,54,0.00,,,0.00,WeatherCatV1.10B1784,2013-01-28 09:42:00,
2013-01-28 04:47:00,19.5,4.8,30.38,WNW,288,0.0,0.0,52,0.00,,,0.00,WeatherCatV1.10B1784,2013-01-28 09:47:00,
2013-01-28 04:52:00,19.4,5.1,30.38,WNW,288,0.0,0.0,53,0.00,,,0.00,WeatherCatV1.10B1784,2013-01-28 09:52:00,
2013-01-28 04:57:00,19.2,6.5,30.39,WNW,288,0.0,0.0,57,0.00,,,0.00,WeatherCatV1.10B1784,2013-01-28 09:57:00,
2013-01-28 05:02:00,18.8,6.5,30.38,WNW,288,0.0,0.0,58,0.00,,,0.00,WeatherCatV1.10B1784,2013-01-28 10:02:00,
2013-01-28 05:07:00,18.6,5.5,30.38,WNW,288,0.0,1.0,56,0.00,,,0.00,WeatherCatV1.10B1784,2013-01-28 10:07:00,
2013-01-28 05:12:00,18.6,5.5,30.38,WNW,288,3.0,4.0,56,0.00,,,0.00,WeatherCatV1.10B1784,2013-01-28 10:12:00,
2013-01-28 05:17:00,19.3,4.6,30.38,WNW,288,0.0,0.0,52,0.00,,,0.00,WeatherCatV1.10B1784,2013-01-28 10:17:00,
2013-01-28 05:22:00,19.6,4.0,30.38,WNW,288,0.0,2.0,50,0.00,,,0.00,WeatherCatV1.10B1784,2013-01-28 10:22:00,
2013-01-28 05:27:00,19.9,3.9,30.38,WNW,288,0.0,0.0,49,0.00,,,0.00,WeatherCatV1.10B1784,2013-01-28 10:27:00,
2013-01-28 05:32:00,19.9,3.9,30.38,WNW,288,0.0,2.0,49,0.00,,,0.00,WeatherCatV1.10B1784,2013-01-28 10:32:00,
2013-01-28 05:37:00,20.0,3.5,30.38,WNW,288,1.0,2.0,48,0.00,,,0.00,WeatherCatV1.10B1784,2013-01-28 10:37:00,
2013-01-28 05:42:00,20.1,3.6,30.38,WNW,288,0.0,4.0,48,0.00,,,0.00,WeatherCatV1.10B1784,2013-01-28 10:42:00,
2013-01-28 05:47:00,20.0,3.9,30.38,WNW,288,0.0,0.0,49,0.00,,,0.00,WeatherCatV1.10B1784,2013-01-28 10:47:00,
2013-01-28 05:52:00,20.0,4.4,30.38,WNW,288,0.0,0.0,50,0.00,,,0.00,WeatherCatV1.10B1784,2013-01-28 10:52:00,
2013-01-28 05:57:00,19.8,5.1,30.37,WNW,288,0.0,0.0,52,0.00,,,0.00,WeatherCatV1.10B1784,2013-01-28 10:57:00,
2013-01-28 06:02:00,19.8,5.1,30.37,WNW,288,2.0,3.0,52,0.00,,,0.00,WeatherCatV1.10B1784,2013-01-28 11:02:00,
2013-01-28 06:07:00,19.9,4.3,30.37,WNW,288,0.0,0.0,50,0.00,,,0.00,WeatherCatV1.10B1784,2013-01-28 11:07:00,
2013-01-28 06:12:00,20.0,3.9,30.37,WNW,288,0.0,0.0,49,0.00,,,0.00,WeatherCatV1.10B1784,2013-01-28 11:12:00,
2013-01-28 06:17:00,20.1,4.5,30.37,WNW,288,0.0,0.0,50,0.00,,,0.00,WeatherCatV1.10B1784,2013-01-28 11:17:00,
2013-01-28 06:22:00,19.9,6.4,30.37,WNW,288,0.0,0.0,55,0.00,,,0.00,WeatherCatV1.10B1784,2013-01-28 11:22:00,
2013-01-28 06:27:00,19.8,5.9,30.37,WNW,288,0.0,0.0,54,0.00,,,0.00,WeatherCatV1.10B1784,2013-01-28 11:27:00,
2013-01-28 06:32:00,19.7,5.0,30.37,WNW,288,0.0,0.0,52,0.00,,,0.00,WeatherCatV1.10B1784,2013-01-28 11:32:00,
2013-01-28 06:37:00,19.9,6.4,30.37,WNW,288,0.0,0.0,55,0.00,,,0.00,WeatherCatV1.10B1784,2013-01-28 11:37:00,
2013-01-28 06:42:00,19.9,4.7,30.37,WNW,288,0.0,0.0,51,0.00,,,0.00,WeatherCatV1.10B1784,2013-01-28 11:42:00,
2013-01-28 06:47:00,20.0,4.8,30.37,WNW,288,0.0,0.0,51,0.00,,,0.00,WeatherCatV1.10B1784,2013-01-28 11:47:00,
2013-01-28 06:52:00,20.1,8.1,30.37,WNW,288,0.0,0.0,59,0.00,,,0.00,WeatherCatV1.10B1784,2013-01-28 11:52:00,
2013-01-28 06:57:00,20.1,5.7,30.37,WNW,288,0.0,0.0,53,0.00,,,0.00,WeatherCatV1.10B1784,2013-01-28 11:57:00,
2013-01-28 07:02:00,20.1,5.3,30.37,WNW,288,0.0,0.0,52,0.00,,,0.00,WeatherCatV1.10B1784,2013-01-28 12:02:00,
2013-01-28 07:07:00,20.1,4.9,30.37,WNW,288,0.0,0.0,51,0.00,,,0.00,WeatherCatV1.10B1784,2013-01-28 12:07:00,
2013-01-28 07:12:00,20.1,5.7,30.37,WNW,288,0.0,0.0,53,0.00,,,0.00,WeatherCatV1.10B1784,2013-01-28 12:12:00,
2013-01-28 07:17:00,20.3,4.7,30.37,WNW,288,0.0,2.0,50,0.00,,,0.00,WeatherCatV1.10B1784,2013-01-28 12:17:00,
2013-01-28 07:22:00,20.7,4.6,30.37,WNW,288,0.0,3.0,49,0.00,,,0.00,WeatherCatV1.10B1784,2013-01-28 12:22:00,
2013-01-28 07:28:00,21.0,4.4,30.36,WNW,288,0.0,0.0,48,0.00,,,0.00,WeatherCatV1.10B1784,2013-01-28 12:28:00,
2013-01-28 07:33:00,21.3,4.2,30.37,WNW,288,0.0,0.0,47,0.00,,,0.00,WeatherCatV1.10B1784,2013-01-28 12:33:00,
2013-01-28 07:38:00,21.5,4.9,30.36,WNW,288,0.0,0.0,48,0.00,,,0.00,WeatherCatV1.10B1784,2013-01-28 12:38:00,
2013-01-28 07:43:00,21.7,5.1,30.37,WNW,288,0.0,2.0,48,0.00,,,0.00,WeatherCatV1.10B1784,2013-01-28 12:43:00,
2013-01-28 07:48:00,21.9,5.3,30.37,WNW,288,1.0,4.0,48,0.00,,,0.00,WeatherCatV1.10B1784,2013-01-28 12:48:00,
2013-01-28 07:53:00,22.1,4.5,30.37,WNW,288,0.0,0.0,46,0.00,,,0.00,WeatherCatV1.10B1784,2013-01-28 12:53:00,
2013-01-28 07:58:00,22.2,4.6,30.36,WNW,288,0.0,0.0,46,0.00,,,0.00,WeatherCatV1.10B1784,2013-01-28 12:58:00,
2013-01-28 08:03:00,22.3,4.7,30.37,WNW,288,0.0,0.0,46,0.00,,,0.00,WeatherCatV1.10B1784,2013-01-28 13:03:00,
2013-01-28 08:08:00,22.5,4.4,30.36,WNW,288,0.0,0.0,45,0.00,,,0.00,WeatherCatV1.10B1784,2013-01-28 13:08:00,
2013-01-28 08:13:00,22.7,5.1,30.36,WNW,288,0.0,0.0,46,0.00,,,0.00,WeatherCatV1.10B1784,2013-01-28 13:13:00,
2013-01-28 08:18:00,22.9,4.8,30.36,WNW,288,0.0,1.0,45,0.00,,,0.00,WeatherCatV1.10B1784,2013-01-28 13:18:00,
2013-01-28 08:23:00,23.0,4.4,30.36,WNW,288,0.0,0.0,44,0.00,,,0.00,WeatherCatV1.10B1784,2013-01-28 13:23:00,
2013-01-28 08:28:00,23.2,5.5,30.36,WNW,288,0.0,0.0,46,0.00,,,0.00,WeatherCatV1.10B1784,2013-01-28 13:28:00,
2013-01-28 08:33:00,23.4,4.7,30.36,WNW,288,0.0,1.0,44,0.00,,,0.00,WeatherCatV1.10B1784,2013-01-28 13:33:00,
2013-01-28 08:38:00,23.6,4.9,30.36,WNW,288,0.0,0.0,44,0.00,,,0.00,WeatherCatV1.10B1784,2013-01-28 13:38:00,
2013-01-28 08:43:00,23.8,8.8,30.36,WNW,288,0.0,0.0,52,0.00,,,0.00,WeatherCatV1.10B1784,2013-01-28 13:43:00,
2013-01-28 08:48:00,23.8,7.9,30.36,WNW,288,0.0,0.0,50,0.00,,,0.00,WeatherCatV1.10B1784,2013-01-28 13:48:00,
2013-01-28 08:53:00,23.9,8.0,30.36,WNW,288,0.0,0.0,50,0.00,,,0.00,WeatherCatV1.10B1784,2013-01-28 13:53:00,
2013-01-28 08:58:00,24.1,5.9,30.36,WNW,288,0.0,0.0,45,0.00,,,0.00,WeatherCatV1.10B1784,2013-01-28 13:58:00,
2013-01-28 09:03:00,24.3,7.9,30.36,WNW,288,0.0,0.0,49,0.00,,,0.00,WeatherCatV1.10B1784,2013-01-28 14:03:00,
2013-01-28 09:08:00,24.5,8.6,30.36,WNW,288,0.0,0.0,50,0.00,,,0.00,WeatherCatV1.10B1784,2013-01-28 14:08:00,
2013-01-28 09:13:00,24.5,9.0,30.36,WNW,288,0.0,0.0,51,0.00,,,0.00,WeatherCatV1.10B1784,2013-01-28 14:13:00,
2013-01-28 09:18:00,24.7,8.7,30.36,WNW,288,0.0,0.0,50,0.00,,,0.00,WeatherCatV1.10B1784,2013-01-28 14:18:00,
2013-01-28 09:23:00,24.9,8.9,30.36,WNW,288,0.0,0.0,50,0.00,,,0.00,WeatherCatV1.10B1784,2013-01-28 14:23:00,
2013-01-28 09:28:00,25.1,9.1,30.36,WNW,288,0.0,0.0,50,0.00,,,0.00,WeatherCatV1.10B1784,2013-01-28 14:28:00,
2013-01-28 09:33:00,25.2,8.8,30.36,WNW,288,0.0,0.0,49,0.00,,,0.00,WeatherCatV1.10B1784,2013-01-28 14:33:00,
2013-01-28 09:38:00,25.3,8.8,30.36,WNW,288,0.0,0.0,49,0.00,,,0.00,WeatherCatV1.10B1784,2013-01-28 14:38:00,
2013-01-28 09:43:00,25.5,9.0,30.36,WNW,288,0.0,1.0,49,0.00,,,0.00,WeatherCatV1.10B1784,2013-01-28 14:43:00,
2013-01-28 09:48:00,25.7,9.2,30.35,WNW,288,0.0,1.0,49,0.00,,,0.00,WeatherCatV1.10B1784,2013-01-28 14:48:00,
2013-01-28 09:53:00,25.7,8.8,30.35,WNW,288,0.0,0.0,48,0.00,,,0.00,WeatherCatV1.10B1784,2013-01-28 14:53:00,
2013-01-28 09:58:00,25.8,9.3,30.35,WNW,288,0.0,0.0,49,0.00,,,0.00,WeatherCatV1.10B1784,2013-01-28 14:58:00,
2013-01-28 10:03:00,25.8,9.3,30.35,WNW,288,0.0,0.0,49,0.00,,,0.00,WeatherCatV1.10B1784,2013-01-28 15:03:00,
2013-01-28 10:08:00,25.7,9.2,30.35,WNW,288,0.0,0.0,49,0.00,,,0.00,WeatherCatV1.10B1784,2013-01-28 15:08:00,
2013-01-28 10:13:00,25.6,9.1,30.35,WNW,288,0.0,0.0,49,0.00,,,0.00,WeatherCatV1.10B1784,2013-01-28 15:13:00,
2013-01-28 10:18:00,25.5,9.9,30.35,WNW,288,0.0,0.0,51,0.00,,,0.00,WeatherCatV1.10B1784,2013-01-28 15:18:00,
2013-01-28 10:23:00,25.5,10.4,30.35,WNW,288,0.0,0.0,52,0.00,,,0.00,WeatherCatV1.10B1784,2013-01-28 15:23:00,
2013-01-28 10:28:00,25.5,11.2,30.34,WNW,288,0.0,0.0,54,0.00,,,0.00,WeatherCatV1.10B1784,2013-01-28 15:28:00,
2013-01-28 10:33:00,25.6,11.3,30.34,WNW,288,0.0,0.0,54,0.00,,,0.00,WeatherCatV1.10B1784,2013-01-28 15:33:00,
2013-01-28 10:38:00,25.7,11.4,30.33,WNW,288,0.0,0.0,54,0.00,,,0.00,WeatherCatV1.10B1784,2013-01-28 15:38:00,
2013-01-28 10:43:00,25.8,11.5,30.33,WNW,288,0.0,2.0,54,0.00,,,0.00,WeatherCatV1.10B1784,2013-01-28 15:43:00,
2013-01-28 10:48:00,25.7,10.5,30.33,WNW,288,0.0,1.0,52,0.00,,,0.00,WeatherCatV1.10B1784,2013-01-28 15:48:00,
2013-01-28 10:53:00,25.7,11.0,30.32,WNW,288,0.0,0.0,53,0.00,,,0.00,WeatherCatV1.10B1784,2013-01-28 15:53:00,
2013-01-28 10:58:00,25.8,11.5,30.32,WNW,288,0.0,2.0,54,0.00,,,0.00,WeatherCatV1.10B1784,2013-01-28 15:58:00,
2013-01-28 11:03:00,25.6,11.3,30.32,WNW,288,0.0,0.0,54,0.00,,,0.00,WeatherCatV1.10B1784,2013-01-28 16:03:00,
2013-01-28 11:08:00,25.6,11.3,30.32,WNW,288,0.0,0.0,54,0.00,,,0.00,WeatherCatV1.10B1784,2013-01-28 16:08:00,
2013-01-28 11:13:00,25.8,11.5,30.33,WNW,288,0.0,1.0,54,0.00,,,0.00,WeatherCatV1.10B1784,2013-01-28 16:13:00,
2013-01-28 11:18:00,26.0,11.7,30.32,WNW,288,0.0,0.0,54,0.00,,,0.00,WeatherCatV1.10B1784,2013-01-28 16:18:00,
2013-01-28 11:23:00,26.3,11.5,30.32,WNW,288,0.0,0.0,53,0.00,,,0.00,WeatherCatV1.10B1784,2013-01-28 16:23:00,
2013-01-28 11:28:00,26.6,11.8,30.31,WNW,288,0.0,0.0,53,0.00,,,0.00,WeatherCatV1.10B1784,2013-01-28 16:28:00,
2013-01-28 11:33:00,26.9,12.1,30.31,WNW,288,0.0,1.0,53,0.00,,,0.00,WeatherCatV1.10B1784,2013-01-28 16:33:00,
2013-01-28 11:38:00,27.1,11.8,30.30,WNW,288,0.0,1.0,52,0.00,,,0.00,WeatherCatV1.10B1784,2013-01-28 16:38:00,
2013-01-28 11:43:00,27.2,11.5,30.29,WNW,288,0.0,0.0,51,0.00,,,0.00,WeatherCatV1.10B1784,2013-01-28 16:43:00,
2013-01-28 11:48:00,27.3,11.1,30.28,WNW,288,0.0,1.0,50,0.00,,,0.00,WeatherCatV1.10B1784,2013-01-28 16:48:00,
2013-01-28 11:53:00,27.6,11.4,30.28,WNW,288,0.0,0.0,50,0.00,,,0.00,WeatherCatV1.10B1784,2013-01-28 16:53:00,
2013-01-28 11:58:00,27.8,11.2,30.28,WNW,288,3.0,3.0,49,0.00,,,0.00,WeatherCatV1.10B1784,2013-01-28 16:58:00,
2013-01-28 12:03:00,28.0,11.3,30.28,WNW,288,0.0,0.0,49,0.00,,,0.00,WeatherCatV1.10B1784,2013-01-28 17:03:00,
2013-01-28 12:08:00,28.1,11.4,30.29,WNW,288,0.0,0.0,49,0.00,,,0.00,WeatherCatV1.10B1784,2013-01-28 17:08:00,
2013-01-28 12:13:00,28.0,9.4,30.28,WNW,288,0.0,1.0,45,0.00,,,0.00,WeatherCatV1.10B1784,2013-01-28 17:13:00,
2013-01-28 12:18:00,28.2,10.6,30.27,WNW,288,0.0,2.0,47,0.00,,,0.00,WeatherCatV1.10B1784,2013-01-28 17:18:00,
2013-01-28 12:23:00,28.5,9.9,30.27,WNW,288,0.0,0.0,45,0.00,,,0.00,WeatherCatV1.10B1784,2013-01-28 17:23:00,
2013-01-28 12:28:00,28.8,11.1,30.27,WNW,288,0.0,1.0,47,0.00,,,0.00,WeatherCatV1.10B1784,2013-01-28 17:28:00,
2013-01-28 12:33:00,29.0,9.8,30.26,WNW,288,0.0,3.0,44,0.00,,,0.00,WeatherCatV1.10B1784,2013-01-28 17:33:00,
2013-01-28 12:38:00,29.2,10.0,30.25,WNW,288,0.0,0.0,44,0.00,,,0.00,WeatherCatV1.10B1784,2013-01-28 17:38:00,
2013-01-28 12:43:00,29.5,10.3,30.25,SSE,155,5.0,6.0,44,0.00,,,0.00,WeatherCatV1.10B1784,2013-01-28 17:43:00,
2013-01-28 12:48:00,29.3,9.6,30.25,South,182,0.0,0.0,43,0.00,,,0.00,WeatherCatV1.10B1784,2013-01-28 17:48:00,
2013-01-28 12:53:00,28.7,11.5,30.25,SSW,204,0.0,3.0,48,0.00,,,0.00,WeatherCatV1.10B1784,2013-01-28 17:53:00,
2013-01-28 12:58:00,28.2,11.5,30.25,SSW,208,2.0,2.0,49,0.00,,,0.00,WeatherCatV1.10B1784,2013-01-28 17:58:00,
2013-01-28 13:03:00,28.1,13.2,30.24,SSE,167,3.0,3.0,53,0.00,,,0.00,WeatherCatV1.10B1784,2013-01-28 18:03:00,
2013-01-28 13:08:00,27.7,16.8,30.24,South,180,0.0,2.0,63,0.00,,,0.00,WeatherCatV1.10B1784,2013-01-28 18:08:00,
2013-01-28 13:13:00,26.8,18.7,30.23,SSE,164,3.0,5.0,71,0.00,,,0.00,WeatherCatV1.10B1784,2013-01-28 18:13:00,
2013-01-28 13:18:00,26.4,19.6,30.23,SSE,152,4.0,4.0,75,0.00,,,0.00,WeatherCatV1.10B1784,2013-01-28 18:18:00,
2013-01-28 13:23:00,26.1,20.5,30.22,SSE,159,0.0,5.0,79,0.00,,,0.00,WeatherCatV1.10B1784,2013-01-28 18:23:00,
2013-01-28 13:28:00,25.8,20.8,30.21,SSE,159,0.0,2.0,81,0.00,,,0.00,WeatherCatV1.10B1784,2013-01-28 18:28:00,
2013-01-28 13:33:00,25.6,20.9,30.21,SSE,161,0.0,0.0,82,0.00,,,0.00,WeatherCatV1.10B1784,2013-01-28 18:33:00,
2013-01-28 13:38:00,25.3,20.6,30.20,SSE,167,0.0,0.0,82,0.00,,,0.00,WeatherCatV1.10B1784,2013-01-28 18:38:00,
2013-01-28 13:43:00,25.2,21.1,30.20,SSE,167,0.0,4.0,84,0.00,,,0.00,WeatherCatV1.10B1784,2013-01-28 18:43:00,
2013-01-28 13:48:00,25.2,21.1,30.19,SSE,156,0.0,4.0,84,0.00,,,0.00,WeatherCatV1.10B1784,2013-01-28 18:48:00,
2013-01-28 13:53:00,25.4,21.5,30.18,SSE,156,0.0,0.0,85,0.00,,,0.00,WeatherCatV1.10B1784,2013-01-28 18:53:00,
2013-01-28 13:58:00,25.4,21.5,30.18,SSE,155,2.0,3.0,85,0.00,,,0.00,WeatherCatV1.10B1784,2013-01-28 18:58:00,
2013-01-28 14:03:00,25.5,21.6,30.18,SE,144,3.0,6.0,85,0.00,,,0.00,WeatherCatV1.10B1784,2013-01-28 19:03:00,
2013-01-28 14:08:00,25.4,21.5,30.18,SSE,155,4.0,4.0,85,0.00,,,0.00,WeatherCatV1.10B1784,2013-01-28 19:08:00,
2013-01-28 14:13:00,25.2,21.1,30.17,SSE,154,0.0,6.0,84,0.00,,,0.00,WeatherCatV1.10B1784,2013-01-28 19:13:00,
2013-01-28 14:18:00,25.2,21.3,30.17,SSE,152,2.0,8.0,85,0.00,,,0.00,WeatherCatV1.10B1784,2013-01-28 19:18:00,
2013-01-28 14:23:00,25.1,21.2,30.17,SSE,161,0.0,4.0,85,0.00,,,0.00,WeatherCatV1.10B1784,2013-01-28 19:23:00,
2013-01-28 14:28:00,25.1,21.5,30.17,SE,144,3.0,4.0,86,0.00,,,0.00,WeatherCatV1.10B1784,2013-01-28 19:28:00,
2013-01-28 14:33:00,24.9,21.3,30.16,SSE,152,7.0,7.0,86,0.00,,,0.00,WeatherCatV1.10B1784,2013-01-28 19:33:00,
2013-01-28 14:38:00,24.8,21.5,30.15,SSE,151,1.0,3.0,87,0.00,,,0.00,WeatherCatV1.10B1784,2013-01-28 19:38:00,
2013-01-28 14:43:00,24.8,21.5,30.15,SE,145,0.0,4.0,87,0.00,,,0.00,WeatherCatV1.10B1784,2013-01-28 19:43:00,
2013-01-28 14:48:00,24.7,21.4,30.15,SE,136,0.0,3.0,87,0.00,,,0.00,WeatherCatV1.10B1784,2013-01-28 19:48:00,
2013-01-28 14:53:00,24.7,21.4,30.15,SE,136,1.0,3.0,87,0.00,,,0.00,WeatherCatV1.10B1784,2013-01-28 19:53:00,
2013-01-28 14:58:00,24.8,21.8,30.15,SE,136,2.0,4.0,88,0.00,,,0.00,WeatherCatV1.10B1784,2013-01-28 19:58:00,
2013-01-28 15:03:00,24.8,21.8,30.14,SE,136,0.0,3.0,88,0.00,,,0.00,WeatherCatV1.10B1784,2013-01-28 20:03:00,
2013-01-28 15:08:00,24.8,21.8,30.15,SE,136,1.0,4.0,88,0.00,,,0.00,WeatherCatV1.10B1784,2013-01-28 20:08:00,
2013-01-28 15:13:00,24.7,21.7,30.14,SE,135,2.0,5.0,88,0.00,,,0.00,WeatherCatV1.10B1784,2013-01-28 20:13:00,
2013-01-28 15:18:00,24.5,21.5,30.13,SE,135,1.0,3.0,88,0.00,,,0.00,WeatherCatV1.10B1784,2013-01-28 20:18:00,
2013-01-28 15:23:00,24.4,21.4,30.14,SE,135,0.0,0.0,88,0.00,,,0.00,WeatherCatV1.10B1784,2013-01-28 20:23:00,
2013-01-28 15:28:00,24.4,21.4,30.14,SE,135,0.0,0.0,88,0.00,,,0.00,WeatherCatV1.10B1784,2013-01-28 20:28:00,
2013-01-28 15:33:00,24.4,21.4,30.13,SE,135,1.0,1.0,88,0.00,,,0.00,WeatherCatV1.10B1784,2013-01-28 20:33:00,
2013-01-28 15:38:00,24.4,21.4,30.14,SE,135,0.0,0.0,88,0.00,,,0.00,WeatherCatV1.10B1784,2013-01-28 20:38:00,
2013-01-28 15:43:00,24.4,21.4,30.14,SE,135,0.0,0.0,88,0.00,,,0.00,WeatherCatV1.10B1784,2013-01-28 20:43:00,
2013-01-28 15:48:00,24.4,21.4,30.15,SE,135,0.0,0.0,88,0.00,,,0.00,WeatherCatV1.10B1784,2013-01-28 20:48:00,
2013-01-28 15:53:00,24.4,21.6,30.15,SE,135,0.0,0.0,89,0.00,,,0.00,WeatherCatV1.10B1784,2013-01-28 20:53:00,
2013-01-28 15:58:00,24.4,21.6,30.15,SE,135,0.0,0.0,89,0.00,,,0.00,WeatherCatV1.10B1784,2013-01-28 20:58:00,
2013-01-28 16:03:00,24.4,21.6,30.15,SE,135,0.0,0.0,89,0.00,,,0.00,WeatherCatV1.10B1784,2013-01-28 21:03:00,
2013-01-28 16:08:00,24.3,21.5,30.14,SE,135,0.0,0.0,89,0.00,,,0.00,WeatherCatV1.10B1784,2013-01-28 21:08:00,
2013-01-28 16:13:00,24.3,21.5,30.14,SE,135,0.0,0.0,89,0.00,,,0.00,WeatherCatV1.10B1784,2013-01-28 21:13:00,
2013-01-28 16:18:00,24.3,21.8,30.13,SE,135,0.0,0.0,90,0.00,,,0.00,WeatherCatV1.10B1784,2013-01-28 21:18:00,
2013-01-28 16:23:00,24.3,21.8,30.13,SE,135,0.0,0.0,90,0.00,,,0.00,WeatherCatV1.10B1784,2013-01-28 21:23:00,
2013-01-28 16:28:00,24.3,21.8,30.12,SE,135,0.0,2.0,90,0.00,,,0.00,WeatherCatV1.10B1784,2013-01-28 21:28:00,
2013-01-28 16:33:00,24.3,21.8,30.12,SE,135,0.0,0.0,90,0.00,,,0.00,WeatherCatV1.10B1784,2013-01-28 21:33:00,
2013-01-28 16:38:00,24.3,21.8,30.11,SE,135,0.0,0.0,90,0.00,,,0.00,WeatherCatV1.10B1784,2013-01-28 21:38:00,
2013-01-28 16:43:00,24.2,21.7,30.11,SE,135,0.0,0.0,90,0.00,,,0.00,WeatherCatV1.10B1784,2013-01-28 21:43:00,
2013-01-28 16:48:00,24.2,21.7,30.11,SE,135,0.0,0.0,90,0.00,,,0.00,WeatherCatV1.10B1784,2013-01-28 21:48:00,
2013-01-28 16:53:00,24.2,21.7,30.11,SE,135,0.0,0.0,90,0.00,,,0.00,WeatherCatV1.10B1784,2013-01-28 21:53:00,
2013-01-28 16:58:00,24.2,21.7,30.11,SE,135,0.0,0.0,90,0.00,,,0.00,WeatherCatV1.10B1784,2013-01-28 21:58:00,
2013-01-28 17:03:00,24.1,21.9,30.10,SE,135,0.0,0.0,91,0.00,,,0.00,WeatherCatV1.10B1784,2013-01-28 22:03:00,
2013-01-28 17:08:00,24.1,21.9,30.11,SE,135,0.0,0.0,91,0.00,,,0.00,WeatherCatV1.10B1784,2013-01-28 22:08:00,
2013-01-28 17:13:00,24.1,21.9,30.10,SE,135,0.0,0.0,91,0.00,,,0.00,WeatherCatV1.10B1784,2013-01-28 22:13:00,
2013-01-28 17:18:00,24.1,21.9,30.10,SE,135,0.0,0.0,91,0.00,,,0.00,WeatherCatV1.10B1784,2013-01-28 22:18:00,
2013-01-28 17:23:00,24.0,21.8,30.09,SE,135,0.0,0.0,91,0.00,,,0.00,WeatherCatV1.10B1784,2013-01-28 22:23:00,
2013-01-28 17:28:00,24.1,21.9,30.09,SE,135,0.0,0.0,91,0.00,,,0.00,WeatherCatV1.10B1784,2013-01-28 22:28:00,
2013-01-28 17:33:00,24.1,21.9,30.08,SE,135,0.0,0.0,91,0.00,,,0.00,WeatherCatV1.10B1784,2013-01-28 22:33:00,
2013-01-28 17:38:00,24.1,21.9,30.10,SE,135,0.0,0.0,91,0.00,,,0.00,WeatherCatV1.10B1784,2013-01-28 22:38:00,
2013-01-28 17:43:00,24.1,21.9,30.09,SE,135,0.0,0.0,91,0.00,,,0.00,WeatherCatV1.10B1784,2013-01-28 22:43:00,
2013-01-28 17:48:00,24.1,21.9,30.08,SE,135,0.0,0.0,91,0.00,,,0.00,WeatherCatV1.10B1784,2013-01-28 22:48:00,
2013-01-28 17:53:00,24.1,21.9,30.08,SE,135,0.0,0.0,91,0.00,,,0.00,WeatherCatV1.10B1784,2013-01-28 22:53:00,
2013-01-28 17:58:00,24.1,21.9,30.08,SE,135,0.0,0.0,91,0.00,,,0.00,WeatherCatV1.10B1784,2013-01-28 22:58:00,
2013-01-28 18:03:00,24.0,21.8,30.07,SE,135,0.0,0.0,91,0.00,,,0.00,WeatherCatV1.10B1784,2013-01-28 23:03:00,
2013-01-28 18:08:00,24.0,21.8,30.07,SE,135,0.0,0.0,91,0.00,,,0.00,WeatherCatV1.10B1784,2013-01-28 23:08:00,
2013-01-28 18:13:00,24.0,22.0,30.06,SE,135,0.0,0.0,92,0.00,,,0.00,WeatherCatV1.10B1784,2013-01-28 23:13:00,
2013-01-28 18:18:00,24.1,22.1,30.07,SE,135,0.0,0.0,92,0.00,,,0.00,WeatherCatV1.10B1784,2013-01-28 23:18:00,
2013-01-28 18:23:00,24.1,22.1,30.08,SE,135,0.0,0.0,92,0.00,,,0.00,WeatherCatV1.10B1784,2013-01-28 23:23:00,
2013-01-28 18:28:00,24.0,22.0,30.08,SE,135,0.0,0.0,92,0.00,,,0.00,WeatherCatV1.10B1784,2013-01-28 23:28:00,
2013-01-28 18:33:00,24.0,22.0,30.08,SE,135,0.0,0.0,92,0.00,,,0.00,WeatherCatV1.10B1784,2013-01-28 23:33:00,
2013-01-28 18:38:00,24.0,22.0,30.07,SE,135,0.0,0.0,92,0.00,,,0.00,WeatherCatV1.10B1784,2013-01-28 23:38:00,
2013-01-28 18:43:00,24.0,22.0,30.06,SE,135,0.0,0.0,92,0.00,,,0.00,WeatherCatV1.10B1784,2013-01-28 23:43:00,
2013-01-28 18:48:00,24.1,22.1,30.05,SE,135,0.0,0.0,92,0.00,,,0.00,WeatherCatV1.10B1784,2013-01-28 23:48:00,
2013-01-28 18:53:00,24.1,22.1,30.05,SE,135,0.0,0.0,92,0.00,,,0.00,WeatherCatV1.10B1784,2013-01-28 23:53:00,
2013-01-28 18:58:00,24.1,22.1,30.05,SE,135,0.0,0.0,92,0.00,,,0.00,WeatherCatV1.10B1784,2013-01-28 23:58:00,
2013-01-28 19:03:00,24.1,22.1,30.06,SE,135,0.0,0.0,92,0.00,,,0.00,WeatherCatV1.10B1784,2013-01-29 00:03:00,
2013-01-28 19:08:00,24.0,22.0,30.07,SE,135,0.0,0.0,92,0.00,,,0.00,WeatherCatV1.10B1784,2013-01-29 00:08:00,
2013-01-28 19:13:00,24.1,22.1,30.08,SE,135,0.0,0.0,92,0.00,,,0.00,WeatherCatV1.10B1784,2013-01-29 00:13:00,
2013-01-28 19:18:00,24.2,22.2,30.09,SE,135,0.0,0.0,92,0.00,,,0.00,WeatherCatV1.10B1784,2013-01-29 00:18:00,
2013-01-28 19:23:00,24.1,22.1,30.07,SE,135,0.0,0.0,92,0.00,,,0.00,WeatherCatV1.10B1784,2013-01-29 00:23:00,
2013-01-28 19:28:00,24.2,22.2,30.06,SE,135,0.0,0.0,92,0.00,,,0.00,WeatherCatV1.10B1784,2013-01-29 00:28:00,
2013-01-28 19:33:00,24.2,22.2,30.06,SE,135,0.0,0.0,92,0.00,,,0.00,WeatherCatV1.10B1784,2013-01-29 00:33:00,
2013-01-28 19:38:00,24.1,22.1,30.07,SE,135,0.0,0.0,92,0.00,,,0.00,WeatherCatV1.10B1784,2013-01-29 00:38:00,
2013-01-28 19:43:00,24.1,22.1,30.06,SE,135,0.0,0.0,92,0.00,,,0.00,WeatherCatV1.10B1784,2013-01-29 00:43:00,
2013-01-28 19:48:00,24.1,22.1,30.07,SE,135,0.0,0.0,92,0.00,,,0.00,WeatherCatV1.10B1784,2013-01-29 00:48:00,
2013-01-28 19:53:00,24.1,22.1,30.06,SE,135,0.0,0.0,92,0.00,,,0.00,WeatherCatV1.10B1784,2013-01-29 00:53:00,
2013-01-28 19:58:00,24.2,22.2,30.04,SE,135,0.0,0.0,92,0.00,,,0.00,WeatherCatV1.10B1784,2013-01-29 00:58:00,
2013-01-28 20:03:00,24.3,22.3,30.05,SE,135,0.0,0.0,92,0.00,,,0.00,WeatherCatV1.10B1784,2013-01-29 01:03:00,
2013-01-28 20:08:00,24.3,22.3,30.06,SE,135,0.0,1.0,92,0.00,,,0.00,WeatherCatV1.10B1784,2013-01-29 01:08:00,
2013-01-28 20:13:00,24.3,22.6,30.04,SE,135,0.0,1.0,93,0.00,,,0.00,WeatherCatV1.10B1784,2013-01-29 01:13:00,
2013-01-28 20:18:00,24.4,22.7,30.04,SE,135,0.0,0.0,93,0.00,,,0.00,WeatherCatV1.10B1784,2013-01-29 01:18:00,
2013-01-28 20:23:00,24.4,22.7,30.04,SE,135,0.0,0.0,93,0.00,,,0.00,WeatherCatV1.10B1784,2013-01-29 01:23:00,
2013-01-28 20:28:00,24.5,22.8,30.03,SE,135,0.0,0.0,93,0.00,,,0.00,WeatherCatV1.10B1784,2013-01-29 01:28:00,
2013-01-28 20:33:00,24.6,22.9,30.03,SE,135,0.0,0.0,93,0.00,,,0.00,WeatherCatV1.10B1784,2013-01-29 01:33:00,
2013-01-28 20:38:00,24.7,23.0,30.03,SE,135,0.0,0.0,93,0.00,,,0.00,WeatherCatV1.10B1784,2013-01-29 01:38:00,
2013-01-28 20:43:00,24.7,23.0,30.03,SE,135,0.0,1.0,93,0.00,,,0.00,WeatherCatV1.10B1784,2013-01-29 01:43:00,
2013-01-28 20:48:00,24.6,22.9,30.02,SE,135,0.0,0.0,93,0.00,,,0.00,WeatherCatV1.10B1784,2013-01-29 01:48:00,
2013-01-28 20:53:00,24.6,22.9,30.03,SE,135,0.0,0.0,93,0.00,,,0.00,WeatherCatV1.10B1784,2013-01-29 01:53:00,
2013-01-28 20:58:00,24.6,22.9,30.02,SE,135,0.0,0.0,93,0.00,,,0.00,WeatherCatV1.10B1784,2013-01-29 01:58:00,
2013-01-28 21:03:00,24.5,22.8,30.02,SE,135,0.0,0.0,93,0.00,,,0.00,WeatherCatV1.10B1784,2013-01-29 02:03:00,
2013-01-28 21:08:00,24.5,22.8,30.02,SE,135,0.0,0.0,93,0.00,,,0.00,WeatherCatV1.10B1784,2013-01-29 02:08:00,
2013-01-28 21:13:00,24.4,22.7,30.02,SE,135,0.0,0.0,93,0.00,,,0.00,WeatherCatV1.10B1784,2013-01-29 02:13:00,
2013-01-28 21:18:00,24.3,22.6,30.02,SE,135,0.0,0.0,93,0.00,,,0.00,WeatherCatV1.10B1784,2013-01-29 02:18:00,
2013-01-28 21:23:00,24.3,22.6,30.01,SE,135,0.0,0.0,93,0.00,,,0.00,WeatherCatV1.10B1784,2013-01-29 02:23:00,
2013-01-28 21:28:00,24.3,22.6,30.02,SE,135,0.0,0.0,93,0.00,,,0.00,WeatherCatV1.10B1784,2013-01-29 02:28:00,
2013-01-28 21:33:00,24.3,22.6,30.02,SE,135,0.0,0.0,93,0.00,,,0.00,WeatherCatV1.10B1784,2013-01-29 02:33:00,
2013-01-28 21:38:00,24.2,22.5,30.01,SE,135,0.0,0.0,93,0.00,,,0.00,WeatherCatV1.10B1784,2013-01-29 02:38:00,
2013-01-28 21:43:00,24.2,22.5,30.02,SE,135,0.0,0.0,93,0.00,,,0.00,WeatherCatV1.10B1784,2013-01-29 02:43:00,
2013-01-28 21:48:00,24.2,22.5,30.01,SE,135,0.0,0.0,93,0.00,,,0.00,WeatherCatV1.10B1784,2013-01-29 02:48:00,
2013-01-28 21:53:00,24.2,22.5,30.01,SE,135,0.0,0.0,93,0.00,,,0.00,WeatherCatV1.10B1784,2013-01-29 02:53:00,
2013-01-28 21:58:00,24.3,22.6,30.01,SE,135,0.0,0.0,93,0.00,,,0.00,WeatherCatV1.10B1784,2013-01-29 02:58:00,
2013-01-28 22:03:00,24.3,22.6,30.00,SE,135,0.0,0.0,93,0.00,,,0.00,WeatherCatV1.10B1784,2013-01-29 03:03:00,
2013-01-28 22:08:00,24.3,22.6,30.00,SE,135,0.0,1.0,93,0.00,,,0.00,WeatherCatV1.10B1784,2013-01-29 03:08:00,
2013-01-28 22:13:00,24.2,22.5,30.00,SE,135,0.0,0.0,93,0.00,,,0.00,WeatherCatV1.10B1784,2013-01-29 03:13:00,
2013-01-28 22:18:00,24.3,22.6,30.00,SE,135,0.0,0.0,93,0.00,,,0.00,WeatherCatV1.10B1784,2013-01-29 03:18:00,
2013-01-28 22:23:00,24.2,22.5,30.01,SE,135,0.0,0.0,93,0.00,,,0.00,WeatherCatV1.10B1784,2013-01-29 03:23:00,
2013-01-28 22:28:00,24.2,22.5,30.01,SE,135,0.0,0.0,93,0.00,,,0.00,WeatherCatV1.10B1784,2013-01-29 03:28:00,
2013-01-28 22:33:00,24.2,22.5,30.01,SE,135,0.0,0.0,93,0.00,,,0.00,WeatherCatV1.10B1784,2013-01-29 03:33:00,
2013-01-28 22:38:00,24.2,22.5,30.00,SE,135,0.0,0.0,93,0.00,,,0.00,WeatherCatV1.10B1784,2013-01-29 03:38:00,
2013-01-28 22:43:00,24.1,22.4,30.00,SE,135,0.0,0.0,93,0.00,,,0.00,WeatherCatV1.10B1784,2013-01-29 03:43:00,
2013-01-28 22:48:00,24.0,22.3,30.00,SE,135,0.0,0.0,93,0.00,,,0.00,WeatherCatV1.10B1784,2013-01-29 03:48:00,
2013-01-28 22:53:00,24.1,22.4,30.01,SE,135,0.0,0.0,93,0.00,,,0.00,WeatherCatV1.10B1784,2013-01-29 03:53:00,
2013-01-28 22:58:00,24.1,22.4,30.01,SE,135,0.0,0.0,93,0.00,,,0.00,WeatherCatV1.10B1784,2013-01-29 03:58:00,
2013-01-28 23:03:00,24.1,22.4,30.01,SE,135,0.0,0.0,93,0.00,,,0.00,WeatherCatV1.10B1784,2013-01-29 04:03:00,
2013-01-28 23:08:00,24.1,22.4,30.00,SE,135,0.0,0.0,93,0.00,,,0.00,WeatherCatV1.10B1784,2013-01-29 04:08:00,
2013-01-28 23:13:00,24.1,22.4,30.01,SE,135,0.0,0.0,93,0.00,,,0.00,WeatherCatV1.10B1784,2013-01-29 04:13:00,
2013-01-28 23:18:00,24.1,22.4,30.01,SE,135,0.0,0.0,93,0.00,,,0.00,WeatherCatV1.10B1784,2013-01-29 04:18:00,
2013-01-28 23:23:00,24.1,22.4,30.00,SE,135,0.0,0.0,93,0.00,,,0.00,WeatherCatV1.10B1784,2013-01-29 04:23:00,
2013-01-28 23:28:00,24.2,22.5,30.00,SE,135,0.0,0.0,93,0.00,,,0.00,WeatherCatV1.10B1784,2013-01-29 04:28:00,
2013-01-28 23:33:00,24.1,22.4,29.99,SE,135,0.0,0.0,93,0.00,,,0.00,WeatherCatV1.10B1784,2013-01-29 04:33:00,
2013-01-28 23:38:00,24.1,22.4,30.00,SE,135,0.0,0.0,93,0.00,,,0.00,WeatherCatV1.10B1784,2013-01-29 04:38:00,
2013-01-28 23:43:00,24.1,22.4,30.00,SE,135,0.0,0.0,93,0.00,,,0.00,WeatherCatV1.10B1784,2013-01-29 04:43:00,
2013-01-28 23:48:00,24.2,22.5,30.00,SE,135,0.0,0.0,93,0.00,,,0.00,WeatherCatV1.10B1784,2013-01-29 04:48:00,
2013-01-28 23:53:00,24.1,22.4,30.00,SE,135,0.0,0.0,93,0.00,,,0.00,WeatherCatV1.10B1784,2013-01-29 04:53:00,
2013-01-28 23:58:00,24.2,22.5,30.00,SE,135,0.0,0.0,93,0.00,,,0.00,WeatherCatV1.10B1784,2013-01-29 04:58:00,